createdAt,value
2023-01-26T00:04:13.461Z,9.00
2023-01-26T00:09:15.613Z,9.00
2023-01-26T00:14:17.992Z,8.90
2023-01-26T00:19:20.091Z,8.90
2023-01-26T00:24:22.197Z,8.90
2023-01-26T00:29:24.284Z,8.80
2023-01-26T00:34:26.323Z,8.80
2023-01-26T00:39:28.367Z,8.80
2023-01-26T00:44:30.379Z,8.80
2023-01-26T00:49:33.114Z,8.80
2023-01-26T00:54:35.223Z,8.80
2023-01-26T00:59:37.430Z,8.70
2023-01-26T01:04:39.522Z,8.70
2023-01-26T01:09:41.596Z,8.40
2023-01-26T01:14:43.728Z,8.30
2023-01-26T01:19:45.735Z,8.10
2023-01-26T01:24:48.306Z,7.90
2023-01-26T01:29:51.652Z,7.80
2023-01-26T01:34:53.696Z,7.70
2023-01-26T01:39:56.756Z,7.70
2023-01-26T01:45:26.597Z,7.70
2023-01-26T01:50:38.138Z,7.70
2023-01-26T01:55:41.129Z,7.80
2023-01-26T02:00:43.847Z,7.70
2023-01-26T02:05:54.822Z,7.60
2023-01-26T02:11:00.801Z,7.50
2023-01-26T02:16:04.095Z,7.50
2023-01-26T02:21:08.821Z,7.40
2023-01-26T02:26:21.140Z,7.40
2023-01-26T02:31:26.956Z,7.40
2023-01-26T02:36:32.954Z,7.40
2023-01-26T02:41:54.087Z,7.40
2023-01-26T02:46:57.895Z,7.40
2023-01-26T02:52:00.059Z,7.30
2023-01-26T02:57:02.207Z,7.10
2023-01-26T03:02:04.513Z,7.10
2023-01-26T03:07:06.573Z,7.20
2023-01-26T03:12:10.031Z,7.20
2023-01-26T03:17:12.119Z,7.20
2023-01-26T03:22:32.630Z,7.20
2023-01-26T03:27:41.608Z,7.20
2023-01-26T03:32:44.291Z,7.20
2023-01-26T03:37:54.839Z,7.10
2023-01-26T03:43:38.081Z,7.00
2023-01-26T03:48:59.065Z,7.00
2023-01-26T03:54:20.514Z,7.00
2023-01-26T03:59:38.261Z,6.90
2023-01-26T04:05:02.374Z,7.00
2023-01-26T04:10:06.952Z,7.00
2023-01-26T04:15:28.501Z,6.90
2023-01-26T04:20:49.242Z,6.90
2023-01-26T04:25:51.352Z,7.00
2023-01-26T04:30:53.891Z,7.10
2023-01-26T04:35:57.058Z,7.10
2023-01-26T04:40:59.355Z,7.20
2023-01-26T04:46:06.286Z,7.20
2023-01-26T04:51:14.539Z,7.10
2023-01-26T04:56:27.279Z,7.10
2023-01-26T05:01:30.057Z,7.00
2023-01-26T05:06:32.782Z,7.10
2023-01-26T05:11:34.920Z,7.10
2023-01-26T05:16:57.255Z,7.10
2023-01-26T05:22:19.615Z,7.10
2023-01-26T05:27:41.639Z,7.00
2023-01-26T05:32:43.751Z,7.00
2023-01-26T05:37:47.254Z,7.00
2023-01-26T05:42:50.007Z,7.00
2023-01-26T05:48:14.609Z,7.10
2023-01-26T05:53:17.194Z,7.10
2023-01-26T05:58:20.611Z,7.10
2023-01-26T06:03:24.102Z,7.20
2023-01-26T06:08:26.318Z,7.10
2023-01-26T06:13:46.837Z,7.10
2023-01-26T06:19:02.721Z,7.00
2023-01-26T06:24:05.318Z,6.90
2023-01-26T06:29:09.033Z,7.00
2023-01-26T06:34:11.289Z,7.10
2023-01-26T06:39:17.300Z,7.20
2023-01-26T06:44:19.627Z,7.20
2023-01-26T06:49:21.772Z,7.20
2023-01-26T06:54:24.011Z,7.20
2023-01-26T06:59:37.863Z,7.10
2023-01-26T07:04:50.066Z,7.00
2023-01-26T07:09:52.155Z,7.00
2023-01-26T07:14:54.191Z,7.00
2023-01-26T07:19:56.277Z,7.00
2023-01-26T07:24:58.297Z,6.90
2023-01-26T07:30:00.362Z,6.90
2023-01-26T07:35:02.402Z,6.90
2023-01-26T07:40:05.959Z,6.80
2023-01-26T07:45:08.466Z,6.80
2023-01-26T07:50:12.257Z,6.80
2023-01-26T07:55:15.039Z,6.90
2023-01-26T08:00:18.242Z,7.00
2023-01-26T08:05:20.306Z,7.00
2023-01-26T08:10:22.449Z,7.00
2023-01-26T08:15:24.496Z,7.00
2023-01-26T08:20:26.671Z,7.10
2023-01-26T08:25:28.862Z,7.10
2023-01-26T08:30:30.981Z,7.20
2023-01-26T08:35:33.505Z,7.30
2023-01-26T08:40:35.775Z,7.20
2023-01-26T08:45:37.883Z,7.30
2023-01-26T08:50:40.004Z,7.20
2023-01-26T08:55:42.150Z,7.30
2023-01-26T09:00:44.252Z,7.30
2023-01-26T09:05:46.306Z,7.30
2023-01-26T09:10:48.374Z,7.30
2023-01-26T09:15:50.848Z,7.30
2023-01-26T09:20:53.636Z,7.30
2023-01-26T09:25:55.885Z,7.30
2023-01-26T09:30:58.079Z,7.40
2023-01-26T09:36:05.017Z,7.50
2023-01-26T09:41:13.614Z,7.60
2023-01-26T09:46:29.657Z,7.60
2023-01-26T09:51:39.812Z,7.60
2023-01-26T09:56:42.068Z,7.60
2023-01-26T10:02:08.763Z,7.60
2023-01-26T10:07:12.959Z,7.70
2023-01-26T10:12:26.563Z,7.70
2023-01-26T10:17:36.615Z,7.80
2023-01-26T10:22:42.482Z,7.80
2023-01-26T10:27:46.003Z,7.80
2023-01-26T10:32:52.762Z,7.80
2023-01-26T10:37:56.343Z,7.80
2023-01-26T10:42:59.929Z,7.80
2023-01-26T10:48:17.898Z,7.70
2023-01-26T10:53:26.354Z,7.70
2023-01-26T10:58:45.749Z,7.80
2023-01-26T11:03:59.568Z,7.80
2023-01-26T11:09:22.128Z,7.90
2023-01-26T11:14:24.272Z,8.00
2023-01-26T11:19:40.344Z,8.00
2023-01-26T11:24:46.437Z,8.10
2023-01-26T11:30:03.566Z,8.10
2023-01-26T11:35:20.715Z,8.10
2023-01-26T11:40:38.725Z,8.10
2023-01-26T11:45:43.737Z,8.10
2023-01-26T11:51:29.427Z,8.20
2023-01-26T11:56:41.122Z,8.40
2023-01-26T12:02:26.425Z,8.60
2023-01-26T12:07:57.167Z,8.60
2023-01-26T12:13:22.853Z,8.40
2023-01-26T12:18:48.948Z,8.20
2023-01-26T12:25:01.137Z,8.20
2023-01-26T12:30:34.375Z,8.30
2023-01-26T12:35:55.144Z,8.30
2023-01-26T12:41:08.855Z,8.20
2023-01-26T12:46:13.330Z,8.20
2023-01-26T12:51:25.856Z,8.20
2023-01-26T12:56:46.271Z,8.20
2023-01-26T13:01:48.457Z,8.30
2023-01-26T13:07:28.867Z,8.30
2023-01-26T13:12:48.818Z,8.10
2023-01-26T13:17:58.274Z,8.00
2023-01-26T13:23:00.408Z,8.10
2023-01-26T13:28:04.377Z,8.00
2023-01-26T13:33:13.963Z,8.00
2023-01-26T13:38:28.994Z,7.90
2023-01-26T13:43:52.553Z,7.80
2023-01-26T13:48:56.015Z,7.80
2023-01-26T13:54:14.620Z,7.80
2023-01-26T13:59:19.506Z,7.90
2023-01-26T14:04:30.877Z,8.00
2023-01-26T14:09:46.129Z,8.00
2023-01-26T14:14:50.226Z,7.90
2023-01-26T14:19:52.481Z,8.00
2023-01-26T14:24:55.261Z,8.00
2023-01-26T14:29:58.750Z,7.90
2023-01-26T14:35:01.298Z,7.90
2023-01-26T14:40:24.120Z,7.80
2023-01-26T14:45:31.380Z,7.70
2023-01-26T14:50:34.959Z,7.60
2023-01-26T14:55:37.207Z,7.60
2023-01-26T15:00:39.633Z,7.60
2023-01-26T15:05:45.601Z,7.60
2023-01-26T15:11:18.975Z,7.50
2023-01-26T15:16:23.757Z,7.40
2023-01-26T15:21:32.762Z,7.50
2023-01-26T15:26:36.067Z,7.50
2023-01-26T15:31:41.872Z,7.50
2023-01-26T15:36:48.031Z,7.50
2023-01-26T15:42:10.965Z,7.50
2023-01-26T15:47:13.995Z,7.40
2023-01-26T15:52:23.341Z,7.40
2023-01-26T15:57:25.631Z,7.40
2023-01-26T16:02:28.507Z,7.40
2023-01-26T16:07:30.747Z,7.30
2023-01-26T16:12:32.875Z,7.10
2023-01-26T16:17:34.920Z,7.00
2023-01-26T16:22:36.980Z,7.10
2023-01-26T16:27:39.032Z,7.10
2023-01-26T16:32:42.536Z,7.10
2023-01-26T16:37:45.048Z,7.20
2023-01-26T16:42:52.350Z,7.10
2023-01-26T16:47:56.454Z,7.10
2023-01-26T16:52:58.796Z,7.00
2023-01-26T16:58:00.856Z,6.70
2023-01-26T17:03:03.347Z,6.50
2023-01-26T17:08:07.653Z,6.40
2023-01-26T17:13:14.757Z,6.40
2023-01-26T17:18:16.850Z,6.40
2023-01-26T17:23:18.868Z,6.50
2023-01-26T17:28:20.908Z,6.60
2023-01-26T17:33:22.956Z,6.60
2023-01-26T17:38:25.007Z,6.70
2023-01-26T17:43:27.550Z,6.70
2023-01-26T17:48:29.750Z,6.60
2023-01-26T17:53:31.820Z,6.60
2023-01-26T17:58:33.980Z,6.50
2023-01-26T18:03:39.632Z,6.50
2023-01-26T18:08:42.479Z,6.50
2023-01-26T18:13:44.916Z,6.50
2023-01-26T18:18:47.501Z,6.50
2023-01-26T18:23:51.909Z,6.40
2023-01-26T18:28:54.771Z,6.40
2023-01-26T18:33:58.387Z,6.30
2023-01-26T18:39:04.019Z,6.20
2023-01-26T18:44:06.641Z,6.30
2023-01-26T18:49:10.129Z,6.30
2023-01-26T18:54:12.147Z,6.30
2023-01-26T18:59:14.127Z,6.40
2023-01-26T19:04:18.221Z,6.40
2023-01-26T19:09:21.341Z,6.40
2023-01-26T19:14:23.414Z,6.40
2023-01-26T19:19:25.617Z,6.50
2023-01-26T19:24:27.811Z,6.50
2023-01-26T19:29:29.841Z,6.50
2023-01-26T19:34:33.749Z,6.50
2023-01-26T19:39:36.491Z,6.40
2023-01-26T19:44:38.724Z,6.30
2023-01-26T19:49:40.941Z,6.20
2023-01-26T19:54:42.946Z,6.20
2023-01-26T19:59:44.967Z,6.10
2023-01-26T20:04:47.550Z,6.00
2023-01-26T20:09:50.953Z,5.80
2023-01-26T20:14:53.591Z,5.80
2023-01-26T20:19:56.131Z,5.70
2023-01-26T20:24:58.230Z,5.70
2023-01-26T20:30:00.334Z,5.80
2023-01-26T20:35:02.525Z,5.90
2023-01-26T20:40:06.554Z,6.00
2023-01-26T20:45:08.834Z,6.00
2023-01-26T20:50:12.895Z,6.10
2023-01-26T20:55:15.196Z,6.10
2023-01-26T21:00:17.660Z,6.20
2023-01-26T21:05:20.191Z,6.20
2023-01-26T21:10:22.378Z,6.20
2023-01-26T21:15:24.356Z,6.30
2023-01-26T21:20:26.334Z,6.40
2023-01-26T21:25:28.399Z,6.30
2023-01-26T21:30:30.503Z,6.30
2023-01-26T21:35:32.497Z,6.30
2023-01-26T21:40:34.521Z,6.30
2023-01-26T21:45:54.949Z,6.30
2023-01-26T21:51:17.000Z,6.30
2023-01-26T21:56:19.038Z,6.20
2023-01-26T22:01:22.018Z,6.30
2023-01-26T22:06:24.784Z,6.30
2023-01-26T22:11:28.145Z,6.20
2023-01-26T22:16:30.218Z,6.20
2023-01-26T22:21:32.825Z,6.20
2023-01-26T22:26:34.894Z,6.00
2023-01-26T22:31:37.015Z,5.90
2023-01-26T22:36:40.280Z,5.70
2023-01-26T22:41:42.548Z,5.70
2023-01-26T22:46:44.578Z,5.70
2023-01-26T22:51:46.566Z,6.00
2023-01-26T22:56:48.599Z,6.10
2023-01-26T23:01:50.676Z,6.20
2023-01-26T23:06:52.885Z,6.20
2023-01-26T23:11:54.921Z,6.20
2023-01-26T23:16:57.510Z,6.30
2023-01-26T23:21:59.555Z,6.30
2023-01-26T23:27:01.577Z,6.10
2023-01-26T23:32:04.384Z,6.10
2023-01-26T23:37:06.498Z,6.00
2023-01-26T23:42:08.543Z,5.90
2023-01-26T23:47:10.626Z,5.90
2023-01-26T23:52:12.774Z,5.90
2023-01-26T23:57:14.819Z,6.00
